Time;durP1;ratioP1;P1;durP2;ratioP2;P2;SDS_P1;SDS_P2;PMS_P1;PMS_P2;Temp;Humidity;BMP_temperature;BMP_pressure;BME280_temperature;BME280_humidity;BME280_pressure;Samples;Min_cycle;Max_cycle;Signal;HPM_P1;HPM_P2
2023/06/09 00:00:07;;;;;;;10.15;4.43;;;;;;;;;;5054119;28;25090;-73
2023/06/09 00:02:33;;;;;;;17.98;4.35;;;;;;;;;;5053743;28;25122;-73
2023/06/09 00:04:59;;;;;;;18.60;5.07;;;;;;;;;;5058666;28;25070;-72
2023/06/09 00:07:26;;;;;;;11.20;4.45;;;;;;;;;;5052210;28;25061;-73
2023/06/09 00:09:52;;;;;;;13.98;5.32;;;;;;;;;;5053575;28;25101;-72
2023/06/09 00:12:18;;;;;;;12.82;4.68;;;;;;;;;;5059942;28;25104;-73
2023/06/09 00:14:44;;;;;;;16.05;5.55;;;;;;;;;;5058206;28;25168;-72
2023/06/09 00:17:11;;;;;;;12.98;4.03;;;;;;;;;;5054883;28;25058;-71
2023/06/09 00:19:37;;;;;;;16.15;4.63;;;;;;;;;;5057381;28;25065;-72
2023/06/09 00:22:05;;;;;;;18.02;5.15;;;;;;;;;;5057586;28;25070;-71
2023/06/09 00:24:31;;;;;;;14.60;3.92;;;;;;;;;;5058641;28;25102;-73
2023/06/09 00:26:57;;;;;;;14.85;4.15;;;;;;;;;;5059437;28;25143;-72
2023/06/09 00:29:23;;;;;;;13.95;4.60;;;;;;;;;;5056515;28;25058;-73
2023/06/09 00:31:49;;;;;;;12.05;5.57;;;;;;;;;;5057976;28;25097;-72
2023/06/09 00:34:15;;;;;;;13.55;4.18;;;;;;;;;;5055277;28;25052;-74
2023/06/09 00:36:41;;;;;;;14.13;4.45;;;;;;;;;;5059369;28;25131;-71
2023/06/09 00:39:08;;;;;;;11.48;4.18;;;;;;;;;;5058057;28;25070;-72
2023/06/09 00:41:37;;;;;;;15.23;5.60;;;;;;;;;;5059595;28;25054;-72
2023/06/09 00:44:04;;;;;;;19.45;4.10;;;;;;;;;;5059249;28;25064;-73
2023/06/09 00:46:30;;;;;;;22.92;6.40;;;;;;;;;;5058549;28;25131;-74
2023/06/09 00:48:56;;;;;;;16.00;4.47;;;;;;;;;;5057383;28;25132;-72
2023/06/09 00:51:22;;;;;;;9.48;4.10;;;;;;;;;;5057814;28;25160;-72
2023/06/09 00:53:48;;;;;;;13.70;4.50;;;;;;;;;;5056525;28;25083;-73
2023/06/09 00:56:15;;;;;;;13.00;5.07;;;;;;;;;;5058218;28;25110;-71
2023/06/09 00:58:41;;;;;;;15.25;5.03;;;;;;;;;;5047486;28;25051;-73
2023/06/09 01:01:07;;;;;;;11.18;4.65;;;;;;;;;;5041167;28;25066;-71
2023/06/09 01:03:34;;;;;;;13.98;4.78;;;;;;;;;;5055052;28;25054;-73
2023/06/09 01:06:09;;;;;;;15.20;5.60;;;;;;;;;;5043815;28;25063;-73
2023/06/09 01:08:38;;;;;;;13.02;4.85;;;;;;;;;;5036837;28;25057;-74
2023/06/09 01:11:10;;;;;;;10.10;4.43;;;;;;;;;;5036375;28;25065;-72
2023/06/09 01:13:55;;;;;;;11.43;4.07;;;;;;;;;;5038065;28;25042;-73
2023/06/09 01:16:24;;;;;;;17.15;4.82;;;;;;;;;;5032502;28;25061;-74
2023/06/09 01:18:51;;;;;;;16.25;4.75;;;;;;;;;;5058254;28;25067;-71
2023/06/09 01:21:35;;;;;;;16.90;4.95;;;;;;;;;;5057277;28;25149;-72
2023/06/09 01:24:23;;;;;;;11.77;4.60;;;;;;;;;;5055980;28;25081;-71
2023/06/09 01:26:50;;;;;;;8.73;4.13;;;;;;;;;;5057444;28;25054;-72
2023/06/09 01:29:18;;;;;;;11.48;4.68;;;;;;;;;;5058884;28;25112;-72
2023/06/09 01:31:44;;;;;;;8.93;4.50;;;;;;;;;;5059698;28;25062;-72
2023/06/09 01:34:10;;;;;;;12.38;4.47;;;;;;;;;;5059392;28;25099;-72
2023/06/09 01:36:36;;;;;;;13.07;4.85;;;;;;;;;;5057186;28;25108;-73
2023/06/09 01:39:02;;;;;;;12.30;4.88;;;;;;;;;;5056347;28;25058;-72
2023/06/09 01:41:28;;;;;;;15.40;4.70;;;;;;;;;;5059842;28;25089;-73
2023/06/09 01:43:54;;;;;;;17.65;5.55;;;;;;;;;;5056452;28;25076;-72
2023/06/09 01:46:20;;;;;;;18.80;4.47;;;;;;;;;;5049769;28;25052;-71
2023/06/09 01:48:49;;;;;;;11.38;4.40;;;;;;;;;;5034260;28;25068;-73
2023/06/09 01:51:18;;;;;;;18.90;5.50;;;;;;;;;;5035568;28;25075;-72
2023/06/09 01:53:48;;;;;;;15.00;4.80;;;;;;;;;;5034088;28;25068;-72
2023/06/09 01:56:25;;;;;;;13.95;4.40;;;;;;;;;;5035624;28;25056;-73
2023/06/09 01:58:54;;;;;;;17.58;4.82;;;;;;;;;;5034646;28;24921;-73
2023/06/09 02:01:22;;;;;;;8.70;4.28;;;;;;;;;;5035508;28;25149;-73
2023/06/09 02:03:51;;;;;;;16.73;4.72;;;;;;;;;;5035004;28;25118;-72
2023/06/09 02:06:19;;;;;;;10.57;5.18;;;;;;;;;;5036110;28;25133;-71
2023/06/09 02:08:45;;;;;;;14.63;4.85;;;;;;;;;;5034393;28;25067;-72
2023/06/09 02:11:11;;;;;;;11.10;4.22;;;;;;;;;;5034902;28;25063;-72
2023/06/09 02:13:37;;;;;;;13.45;4.90;;;;;;;;;;5034118;28;25107;-73
2023/06/09 02:16:04;;;;;;;15.45;5.07;;;;;;;;;;5035040;28;25066;-72
2023/06/09 02:18:32;;;;;;;11.90;5.25;;;;;;;;;;5033125;28;25165;-72
2023/06/09 02:20:58;;;;;;;9.45;4.57;;;;;;;;;;5051733;28;25138;-73
2023/06/09 02:23:24;;;;;;;11.38;4.60;;;;;;;;;;5033650;28;25053;-71
2023/06/09 02:25:50;;;;;;;13.85;5.30;;;;;;;;;;5035311;28;25104;-71
2023/06/09 02:28:16;;;;;;;13.15;5.40;;;;;;;;;;5036130;28;25084;-72
2023/06/09 02:30:42;;;;;;;17.33;5.35;;;;;;;;;;5055181;28;25063;-72
2023/06/09 02:33:10;;;;;;;19.60;5.25;;;;;;;;;;5052837;28;25072;-70
2023/06/09 02:35:36;;;;;;;15.85;5.25;;;;;;;;;;5055212;28;25142;-72
2023/06/09 02:38:05;;;;;;;18.90;5.70;;;;;;;;;;5053100;28;25091;-71
2023/06/09 02:40:32;;;;;;;16.23;5.13;;;;;;;;;;5054154;28;25070;-71
2023/06/09 02:42:58;;;;;;;11.63;4.82;;;;;;;;;;5053017;28;25160;-72
2023/06/09 02:45:25;;;;;;;11.15;4.13;;;;;;;;;;5055735;28;25131;-72
2023/06/09 02:47:51;;;;;;;15.95;4.55;;;;;;;;;;5053020;28;24773;-72
2023/06/09 02:50:17;;;;;;;10.00;4.22;;;;;;;;;;5054299;28;25136;-73
2023/06/09 02:52:44;;;;;;;10.55;4.40;;;;;;;;;;5053386;28;25123;-72
2023/06/09 02:55:11;;;;;;;15.43;5.68;;;;;;;;;;5053648;28;25056;-72
2023/06/09 02:57:37;;;;;;;13.30;4.40;;;;;;;;;;5040338;28;25103;-72
2023/06/09 03:00:04;;;;;;;15.00;4.90;;;;;;;;;;5056016;28;25061;-72
2023/06/09 03:02:30;;;;;;;23.70;5.78;;;;;;;;;;5051822;28;25115;-74
2023/06/09 03:04:56;;;;;;;21.00;5.35;;;;;;;;;;5052551;28;24982;-73
2023/06/09 03:07:22;;;;;;;10.95;4.38;;;;;;;;;;5053520;28;25167;-72
2023/06/09 03:09:48;;;;;;;15.45;7.13;;;;;;;;;;5054990;28;25058;-72
2023/06/09 03:12:15;;;;;;;10.82;4.97;;;;;;;;;;5052836;28;25110;-73
2023/06/09 03:14:40;;;;;;;23.58;4.78;;;;;;;;;;5055318;28;25090;-73
2023/06/09 03:17:06;;;;;;;11.70;4.55;;;;;;;;;;5051863;28;25093;-73
2023/06/09 03:19:32;;;;;;;12.15;4.57;;;;;;;;;;5053686;28;25070;-72
2023/06/09 03:21:58;;;;;;;18.48;5.22;;;;;;;;;;5053786;28;25059;-73
2023/06/09 03:24:25;;;;;;;16.63;4.57;;;;;;;;;;5053163;28;25153;-72
2023/06/09 03:26:52;;;;;;;13.60;4.43;;;;;;;;;;5054032;28;25161;-71
2023/06/09 03:29:18;;;;;;;9.88;4.25;;;;;;;;;;5053824;28;25052;-72
2023/06/09 03:31:44;;;;;;;16.63;5.35;;;;;;;;;;5054589;28;25173;-72
2023/06/09 03:34:10;;;;;;;12.23;5.22;;;;;;;;;;5045300;28;25084;-73
2023/06/09 03:36:36;;;;;;;11.48;4.78;;;;;;;;;;5077499;28;25093;-73
2023/06/09 03:39:03;;;;;;;15.45;4.82;;;;;;;;;;5080966;28;25070;-72
2023/06/09 03:41:30;;;;;;;20.05;5.57;;;;;;;;;;5074453;28;25082;-73
2023/06/09 03:43:56;;;;;;;17.70;4.35;;;;;;;;;;5054657;28;25079;-72
2023/06/09 03:46:22;;;;;;;15.32;5.45;;;;;;;;;;5063526;28;25065;-73
2023/06/09 03:48:48;;;;;;;19.30;5.53;;;;;;;;;;5081992;28;25122;-72
2023/06/09 03:51:14;;;;;;;8.60;4.18;;;;;;;;;;5082201;28;25059;-72
2023/06/09 03:53:40;;;;;;;17.80;5.43;;;;;;;;;;5083197;28;25060;-72
2023/06/09 03:56:07;;;;;;;14.13;5.13;;;;;;;;;;5067759;28;25061;-74
2023/06/09 03:58:33;;;;;;;11.73;5.05;;;;;;;;;;5061702;28;25057;-74
2023/06/09 04:00:59;;;;;;;14.32;4.75;;;;;;;;;;5061305;28;25095;-74
2023/06/09 04:03:25;;;;;;;13.23;5.05;;;;;;;;;;5061178;28;25090;-70
2023/06/09 04:05:51;;;;;;;14.18;5.55;;;;;;;;;;5062644;28;25065;-75
2023/06/09 04:08:17;;;;;;;11.30;4.38;;;;;;;;;;5046466;28;25103;-72
2023/06/09 04:10:43;;;;;;;23.77;5.93;;;;;;;;;;5062616;28;25103;-72
2023/06/09 04:13:10;;;;;;;13.85;5.22;;;;;;;;;;5058346;28;25137;-71
2023/06/09 04:15:36;;;;;;;15.25;5.20;;;;;;;;;;5061487;28;25133;-72
2023/06/09 04:18:03;;;;;;;14.13;5.88;;;;;;;;;;5061424;28;25134;-72
2023/06/09 04:20:29;;;;;;;14.00;5.22;;;;;;;;;;5060658;28;25067;-72
2023/06/09 04:22:55;;;;;;;12.95;4.63;;;;;;;;;;5061260;28;25151;-71
2023/06/09 04:25:25;;;;;;;16.42;5.47;;;;;;;;;;5059926;28;25121;-71
2023/06/09 04:27:52;;;;;;;12.98;5.18;;;;;;;;;;5058370;28;25085;-71
2023/06/09 04:30:19;;;;;;;12.93;4.32;;;;;;;;;;5059679;28;25054;-72
2023/06/09 04:32:45;;;;;;;15.65;4.55;;;;;;;;;;5057720;28;25119;-71
2023/06/09 04:35:11;;;;;;;9.57;4.60;;;;;;;;;;5058421;28;25175;-72
2023/06/09 04:37:38;;;;;;;12.85;5.57;;;;;;;;;;5058750;28;25094;-71
2023/06/09 04:40:04;;;;;;;17.52;6.07;;;;;;;;;;5063255;28;25078;-71
2023/06/09 04:42:30;;;;;;;16.35;5.45;;;;;;;;;;5064440;28;25062;-73
2023/06/09 04:44:56;;;;;;;13.32;4.97;;;;;;;;;;5064414;28;25055;-70
2023/06/09 04:47:24;;;;;;;8.88;4.03;;;;;;;;;;5062670;28;25061;-73
2023/06/09 04:49:50;;;;;;;11.60;5.13;;;;;;;;;;5062425;28;25058;-71
2023/06/09 04:52:20;;;;;;;14.07;4.35;;;;;;;;;;5060073;28;25091;-72
2023/06/09 04:54:49;;;;;;;14.48;4.70;;;;;;;;;;5060707;28;25054;-73
2023/06/09 04:57:17;;;;;;;9.82;4.03;;;;;;;;;;5056728;28;25059;-71
2023/06/09 04:59:45;;;;;;;11.55;4.85;;;;;;;;;;5063980;28;25061;-72
2023/06/09 05:02:11;;;;;;;11.93;5.13;;;;;;;;;;5064727;28;25154;-73
2023/06/09 05:04:37;;;;;;;12.10;4.68;;;;;;;;;;5066814;28;25060;-72
2023/06/09 05:07:04;;;;;;;16.15;4.75;;;;;;;;;;5067991;28;25063;-73
2023/06/09 05:09:30;;;;;;;14.45;4.78;;;;;;;;;;5066509;28;25057;-72
2023/06/09 05:11:56;;;;;;;14.40;4.70;;;;;;;;;;5070862;28;25114;-74
2023/06/09 05:14:22;;;;;;;19.55;5.55;;;;;;;;;;5049095;28;25068;-73
2023/06/09 05:16:49;;;;;;;16.90;4.70;;;;;;;;;;5066557;28;25051;-73
2023/06/09 05:19:16;;;;;;;9.85;4.50;;;;;;;;;;5062994;28;25077;-72
2023/06/09 05:21:45;;;;;;;20.48;5.10;;;;;;;;;;5068346;28;25075;-74
2023/06/09 05:24:11;;;;;;;12.23;4.30;;;;;;;;;;5067897;28;25072;-75
2023/06/09 05:26:37;;;;;;;11.25;5.43;;;;;;;;;;5067263;28;25069;-73
2023/06/09 05:29:03;;;;;;;17.27;5.35;;;;;;;;;;5062220;28;25088;-76
2023/06/09 05:31:31;;;;;;;12.13;5.03;;;;;;;;;;5061226;28;25081;-78
2023/06/09 05:33:57;;;;;;;16.05;4.78;;;;;;;;;;5059936;28;25106;-74
2023/06/09 05:36:23;;;;;;;11.95;4.75;;;;;;;;;;5061721;28;25180;-75
2023/06/09 05:38:49;;;;;;;15.73;5.85;;;;;;;;;;5063170;28;25063;-73
2023/06/09 05:41:15;;;;;;;13.23;5.00;;;;;;;;;;5058887;28;25119;-75
2023/06/09 05:43:41;;;;;;;16.30;4.95;;;;;;;;;;5059215;28;25090;-72
2023/06/09 05:46:07;;;;;;;11.30;4.88;;;;;;;;;;5059980;28;25061;-73
2023/06/09 05:48:33;;;;;;;13.50;5.10;;;;;;;;;;5045580;28;25062;-75
2023/06/09 05:51:01;;;;;;;17.52;4.57;;;;;;;;;;5062577;28;25088;-73
2023/06/09 05:53:27;;;;;;;18.95;4.90;;;;;;;;;;5060187;28;25088;-72
2023/06/09 05:55:54;;;;;;;13.65;4.88;;;;;;;;;;5061989;28;25140;-73
2023/06/09 05:58:20;;;;;;;12.45;4.95;;;;;;;;;;5063578;28;25065;-71
2023/06/09 06:00:46;;;;;;;19.33;5.57;;;;;;;;;;5064836;28;25051;-71
2023/06/09 06:03:12;;;;;;;15.95;5.43;;;;;;;;;;5060325;28;25102;-72
2023/06/09 06:05:38;;;;;;;16.13;4.78;;;;;;;;;;5065930;28;25171;-74
2023/06/09 06:08:07;;;;;;;14.07;4.90;;;;;;;;;;5058696;28;25077;-74
2023/06/09 06:10:33;;;;;;;15.63;5.65;;;;;;;;;;5059487;28;25055;-72
2023/06/09 06:13:02;;;;;;;11.95;5.38;;;;;;;;;;5058088;28;25080;-75
2023/06/09 06:15:28;;;;;;;11.73;5.05;;;;;;;;;;5059557;28;25069;-73
2023/06/09 06:17:54;;;;;;;9.55;5.28;;;;;;;;;;5058286;28;25121;-73
2023/06/09 06:20:20;;;;;;;11.38;5.35;;;;;;;;;;5060655;28;25056;-72
2023/06/09 06:22:46;;;;;;;12.63;5.55;;;;;;;;;;5057493;28;25138;-73
2023/06/09 06:25:13;;;;;;;17.45;5.63;;;;;;;;;;5059172;28;25075;-72
2023/06/09 06:27:39;;;;;;;20.83;5.82;;;;;;;;;;5047451;28;25084;-73
2023/06/09 06:30:06;;;;;;;11.75;5.93;;;;;;;;;;5059509;28;25059;-73
2023/06/09 06:32:32;;;;;;;16.63;5.63;;;;;;;;;;5057147;28;25076;-72
2023/06/09 06:34:58;;;;;;;13.23;5.45;;;;;;;;;;5059198;28;25087;-73
2023/06/09 06:37:24;;;;;;;17.08;6.32;;;;;;;;;;5057403;28;25075;-73
2023/06/09 06:39:50;;;;;;;15.60;6.22;;;;;;;;;;5060191;28;25073;-73
2023/06/09 06:42:16;;;;;;;13.40;6.00;;;;;;;;;;5056395;28;25063;-74
2023/06/09 06:44:42;;;;;;;14.77;6.38;;;;;;;;;;5057872;28;25070;-72
2023/06/09 06:47:08;;;;;;;16.90;6.35;;;;;;;;;;5028564;28;25102;-73
2023/06/09 06:49:34;;;;;;;17.52;5.60;;;;;;;;;;5058478;28;25059;-76
2023/06/09 06:52:00;;;;;;;13.85;5.50;;;;;;;;;;5058491;28;25154;-74
2023/06/09 06:54:26;;;;;;;17.58;7.15;;;;;;;;;;5057158;28;25093;-75
2023/06/09 06:56:52;;;;;;;16.10;6.05;;;;;;;;;;5057600;28;25069;-74
2023/06/09 06:59:18;;;;;;;17.58;6.57;;;;;;;;;;5056044;28;25059;-73
2023/06/09 07:01:45;;;;;;;16.55;5.90;;;;;;;;;;5056629;28;25156;-72
2023/06/09 07:04:11;;;;;;;10.85;6.15;;;;;;;;;;5055689;28;25058;-72
2023/06/09 07:06:37;;;;;;;18.02;6.82;;;;;;;;;;5055960;28;25072;-73
2023/06/09 07:09:03;;;;;;;14.40;6.38;;;;;;;;;;5052904;28;25437;-76
2023/06/09 07:11:32;;;;;;;19.25;7.00;;;;;;;;;;5054076;28;25140;-74
2023/06/09 07:13:58;;;;;;;19.02;7.22;;;;;;;;;;5052673;28;25233;-78
2023/06/09 07:16:24;;;;;;;17.73;7.32;;;;;;;;;;5054952;28;25067;-73
2023/06/09 07:18:50;;;;;;;16.13;7.18;;;;;;;;;;5050685;28;25050;-72
2023/06/09 07:21:16;;;;;;;14.70;6.10;;;;;;;;;;5051789;28;25071;-74
2023/06/09 07:23:42;;;;;;;15.40;6.63;;;;;;;;;;5052333;28;25042;-72
2023/06/09 07:26:08;;;;;;;17.77;7.28;;;;;;;;;;5052647;28;25110;-73
2023/06/09 07:28:35;;;;;;;14.85;6.55;;;;;;;;;;5052141;28;25113;-73
2023/06/09 07:31:01;;;;;;;14.95;6.60;;;;;;;;;;5053182;28;25070;-74
2023/06/09 07:33:31;;;;;;;17.10;6.80;;;;;;;;;;5053237;28;25056;-74
2023/06/09 07:35:57;;;;;;;14.23;6.93;;;;;;;;;;5052800;28;25085;-73
2023/06/09 07:38:25;;;;;;;13.68;7.38;;;;;;;;;;5052183;28;25081;-76
2023/06/09 07:40:51;;;;;;;14.88;6.90;;;;;;;;;;5052860;28;25061;-74
2023/06/09 07:43:17;;;;;;;19.77;7.53;;;;;;;;;;5052590;28;25159;-70
2023/06/09 07:45:44;;;;;;;19.10;7.32;;;;;;;;;;5052896;28;25064;-72
2023/06/09 07:48:09;;;;;;;19.00;7.47;;;;;;;;;;5052078;28;25072;-72
2023/06/09 07:50:36;;;;;;;19.17;7.97;;;;;;;;;;5053086;28;25119;-73
2023/06/09 07:53:03;;;;;;;17.58;7.63;;;;;;;;;;5051486;28;25062;-74
2023/06/09 07:55:29;;;;;;;21.75;8.23;;;;;;;;;;5054370;28;25092;-77
2023/06/09 07:57:55;;;;;;;14.40;8.13;;;;;;;;;;5054125;28;25057;-71
2023/06/09 08:00:21;;;;;;;14.68;7.70;;;;;;;;;;5053183;28;25062;-74
2023/06/09 08:02:50;;;;;;;16.42;7.43;;;;;;;;;;5051933;28;25053;-74
2023/06/09 08:05:16;;;;;;;13.32;8.30;;;;;;;;;;5056074;28;25110;-74
2023/06/09 08:07:42;;;;;;;19.67;8.88;;;;;;;;;;5057405;28;25097;-73
2023/06/09 08:10:08;;;;;;;16.90;8.30;;;;;;;;;;5057957;28;25107;-74
2023/06/09 08:12:35;;;;;;;17.23;7.78;;;;;;;;;;5059460;28;25085;-74
2023/06/09 08:15:01;;;;;;;19.30;8.32;;;;;;;;;;5060182;28;25094;-76
2023/06/09 08:17:27;;;;;;;16.05;8.43;;;;;;;;;;5054075;28;25092;-74
2023/06/09 08:19:53;;;;;;;18.55;8.18;;;;;;;;;;5053578;28;25087;-75
2023/06/09 08:22:19;;;;;;;16.92;8.40;;;;;;;;;;5051812;28;25140;-72
2023/06/09 08:24:46;;;;;;;17.88;8.55;;;;;;;;;;5054339;28;25077;-71
2023/06/09 08:27:13;;;;;;;13.77;7.43;;;;;;;;;;5057879;28;25146;-73
2023/06/09 08:29:39;;;;;;;19.25;7.88;;;;;;;;;;5054050;28;25062;-74
2023/06/09 08:32:05;;;;;;;18.48;7.60;;;;;;;;;;5051846;28;24986;-74
2023/06/09 08:34:31;;;;;;;15.90;7.43;;;;;;;;;;5056060;28;25078;-75
2023/06/09 08:36:57;;;;;;;19.00;8.85;;;;;;;;;;5056958;28;25171;-72
2023/06/09 08:39:24;;;;;;;14.45;7.82;;;;;;;;;;5053075;28;25131;-72
2023/06/09 08:41:51;;;;;;;18.75;8.70;;;;;;;;;;5056500;28;25128;-74
2023/06/09 08:44:17;;;;;;;19.52;9.10;;;;;;;;;;5055674;28;25055;-73
2023/06/09 08:46:43;;;;;;;16.33;8.05;;;;;;;;;;5042110;28;25060;-72
2023/06/09 08:49:09;;;;;;;17.10;8.07;;;;;;;;;;5055984;28;25112;-74
2023/06/09 08:51:37;;;;;;;12.13;7.95;;;;;;;;;;5057102;28;25112;-73
2023/06/09 08:54:03;;;;;;;15.85;7.53;;;;;;;;;;5040722;28;25138;-73
2023/06/09 08:56:29;;;;;;;13.30;7.53;;;;;;;;;;5043070;28;25131;-74
2023/06/09 08:58:56;;;;;;;17.40;9.20;;;;;;;;;;5054904;28;25086;-74
2023/06/09 09:01:22;;;;;;;15.57;7.63;;;;;;;;;;5055252;28;25103;-72
2023/06/09 09:03:48;;;;;;;13.98;7.40;;;;;;;;;;5054579;28;25116;-73
2023/06/09 09:06:14;;;;;;;16.98;8.23;;;;;;;;;;5057576;28;25069;-72
2023/06/09 09:08:41;;;;;;;11.68;7.57;;;;;;;;;;5040305;28;25155;-73
2023/06/09 09:11:07;;;;;;;13.70;7.90;;;;;;;;;;5058828;28;25050;-71
2023/06/09 09:13:32;;;;;;;16.13;8.95;;;;;;;;;;5075842;28;25067;-71
2023/06/09 09:15:59;;;;;;;12.38;7.82;;;;;;;;;;5081419;28;25072;-71
2023/06/09 09:18:34;;;;;;;12.50;7.90;;;;;;;;;;5083243;28;25058;-74
2023/06/09 09:21:00;;;;;;;14.52;7.82;;;;;;;;;;5081936;28;25096;-71
2023/06/09 09:23:30;;;;;;;15.90;8.48;;;;;;;;;;5081859;28;25068;-70
2023/06/09 09:25:56;;;;;;;14.75;7.85;;;;;;;;;;5087398;28;25060;-73
2023/06/09 09:28:22;;;;;;;15.05;8.52;;;;;;;;;;5086591;28;25064;-74
2023/06/09 09:30:50;;;;;;;15.88;7.57;;;;;;;;;;5082671;28;25145;-73
2023/06/09 09:33:18;;;;;;;19.63;8.38;;;;;;;;;;5071086;28;25099;-73
2023/06/09 09:35:46;;;;;;;13.75;8.73;;;;;;;;;;5077505;28;25056;-75
2023/06/09 09:38:16;;;;;;;17.90;8.23;;;;;;;;;;5071828;28;25071;-73
2023/06/09 09:40:44;;;;;;;13.68;8.13;;;;;;;;;;5071160;28;25071;-71
2023/06/09 09:43:10;;;;;;;13.05;8.02;;;;;;;;;;5061089;28;25071;-71
2023/06/09 09:45:39;;;;;;;14.65;8.38;;;;;;;;;;5054301;28;25059;-72
2023/06/09 09:48:09;;;;;;;14.95;8.40;;;;;;;;;;5055039;28;25087;-73
2023/06/09 09:50:39;;;;;;;14.15;8.65;;;;;;;;;;5055270;28;25084;-71
2023/06/09 09:53:05;;;;;;;19.48;9.40;;;;;;;;;;5053728;28;25051;-73
2023/06/09 09:55:35;;;;;;;17.38;9.80;;;;;;;;;;5054596;28;25066;-72
2023/06/09 09:58:04;;;;;;;19.60;9.65;;;;;;;;;;5053578;28;25066;-71
2023/06/09 10:00:30;;;;;;;15.65;9.23;;;;;;;;;;5054315;28;25068;-73
2023/06/09 10:02:59;;;;;;;14.57;8.02;;;;;;;;;;5054012;28;25118;-72
2023/06/09 10:05:26;;;;;;;19.13;9.15;;;;;;;;;;5053967;28;25098;-72
2023/06/09 10:07:55;;;;;;;17.17;8.68;;;;;;;;;;5053991;28;25113;-71
2023/06/09 10:10:22;;;;;;;15.32;8.48;;;;;;;;;;5057182;28;25078;-72
2023/06/09 10:12:48;;;;;;;16.55;7.88;;;;;;;;;;5054569;28;25091;-71
2023/06/09 10:15:14;;;;;;;12.32;8.20;;;;;;;;;;5054455;28;25071;-72
2023/06/09 10:17:42;;;;;;;10.63;7.63;;;;;;;;;;5052876;28;25148;-72
2023/06/09 10:20:09;;;;;;;13.73;7.65;;;;;;;;;;5053959;28;25057;-72
2023/06/09 10:22:36;;;;;;;16.17;8.77;;;;;;;;;;5055011;28;25064;-72
2023/06/09 10:25:03;;;;;;;11.13;7.53;;;;;;;;;;5055808;28;25137;-71
2023/06/09 10:27:30;;;;;;;14.48;9.18;;;;;;;;;;5055532;28;25066;-71
2023/06/09 10:29:56;;;;;;;20.50;8.20;;;;;;;;;;5059057;28;25096;-72
2023/06/09 10:32:24;;;;;;;14.82;7.53;;;;;;;;;;5055732;28;25136;-71
2023/06/09 10:34:53;;;;;;;14.38;8.95;;;;;;;;;;5054086;28;25055;-71
2023/06/09 10:37:35;;;;;;;16.10;8.50;;;;;;;;;;5054756;28;25066;-72
2023/06/09 10:40:05;;;;;;;20.02;7.55;;;;;;;;;;5057098;28;25053;-72
2023/06/09 10:42:33;;;;;;;12.95;7.70;;;;;;;;;;5056641;28;25073;-72
2023/06/09 10:45:08;;;;;;;12.85;8.07;;;;;;;;;;5055443;28;25112;-71
2023/06/09 10:47:46;;;;;;;13.98;8.00;;;;;;;;;;5055335;28;25139;-73
2023/06/09 10:50:33;;;;;;;12.93;8.52;;;;;;;;;;5056503;28;25065;-72
2023/06/09 10:53:02;;;;;;;14.23;8.05;;;;;;;;;;5056593;28;25048;-72
2023/06/09 10:55:30;;;;;;;10.70;6.30;;;;;;;;;;5054275;28;25118;-72
2023/06/09 10:57:56;;;;;;;12.43;6.80;;;;;;;;;;5054712;28;25181;-71
2023/06/09 11:00:22;;;;;;;15.85;6.60;;;;;;;;;;5055642;28;25077;-72
2023/06/09 11:02:52;;;;;;;14.75;7.07;;;;;;;;;;5052593;28;25078;-72
2023/06/09 11:05:20;;;;;;;10.30;6.63;;;;;;;;;;5055085;28;25049;-73
2023/06/09 11:07:50;;;;;;;11.18;6.68;;;;;;;;;;5054272;28;25079;-71
2023/06/09 11:10:19;;;;;;;12.13;7.45;;;;;;;;;;5057101;28;25083;-71
2023/06/09 11:12:46;;;;;;;9.45;6.60;;;;;;;;;;5057673;28;25080;-74
2023/06/09 11:15:15;;;;;;;11.20;8.60;;;;;;;;;;5062443;28;25166;-72
2023/06/09 11:17:41;;;;;;;7.60;6.55;;;;;;;;;;5055244;28;25056;-70
2023/06/09 11:20:10;;;;;;;11.02;7.13;;;;;;;;;;5055609;28;25053;-73
2023/06/09 11:22:36;;;;;;;11.15;6.78;;;;;;;;;;5053259;28;25064;-71
2023/06/09 11:25:02;;;;;;;10.00;6.30;;;;;;;;;;5053902;28;25075;-70
2023/06/09 11:27:28;;;;;;;10.90;6.88;;;;;;;;;;5053918;28;25062;-71
2023/06/09 11:30:07;;;;;;;11.13;6.18;;;;;;;;;;5039633;28;25081;-73
2023/06/09 11:32:49;;;;;;;10.00;4.93;;;;;;;;;;5053985;28;25061;-73
2023/06/09 11:35:31;;;;;;;6.20;4.68;;;;;;;;;;5056782;28;25134;-69
2023/06/09 11:37:58;;;;;;;8.73;5.30;;;;;;;;;;5057513;28;25065;-73
2023/06/09 11:40:24;;;;;;;5.47;4.70;;;;;;;;;;5057518;28;25061;-72
2023/06/09 11:42:51;;;;;;;6.85;4.93;;;;;;;;;;5053085;28;25069;-72
2023/06/09 11:45:17;;;;;;;10.05;5.10;;;;;;;;;;5055877;28;25073;-74
2023/06/09 11:47:44;;;;;;;6.50;4.57;;;;;;;;;;5052213;28;25083;-73
2023/06/09 11:50:12;;;;;;;9.30;4.65;;;;;;;;;;5053955;28;25052;-71
2023/06/09 11:52:39;;;;;;;9.30;4.07;;;;;;;;;;5057505;28;25127;-70
2023/06/09 11:55:05;;;;;;;9.13;4.28;;;;;;;;;;5059846;28;25074;-75
2023/06/09 11:57:32;;;;;;;8.15;4.38;;;;;;;;;;5052718;28;25098;-71
2023/06/09 11:59:58;;;;;;;8.85;4.72;;;;;;;;;;5054864;28;25121;-72
2023/06/09 12:02:25;;;;;;;10.00;5.15;;;;;;;;;;5052548;28;25168;-71
2023/06/09 12:04:51;;;;;;;9.73;4.47;;;;;;;;;;5052967;28;25151;-71
2023/06/09 12:07:18;;;;;;;9.40;4.82;;;;;;;;;;5055091;28;25064;-70
2023/06/09 12:09:45;;;;;;;11.52;5.28;;;;;;;;;;5057810;28;25065;-70
2023/06/09 12:12:11;;;;;;;8.82;4.80;;;;;;;;;;5056147;28;25080;-71
2023/06/09 12:14:38;;;;;;;5.85;5.15;;;;;;;;;;5059176;28;25064;-72
2023/06/09 12:17:05;;;;;;;10.30;5.18;;;;;;;;;;5056223;28;25137;-72
2023/06/09 12:19:31;;;;;;;7.68;4.45;;;;;;;;;;5058336;28;25151;-73
2023/06/09 12:21:57;;;;;;;5.63;3.80;;;;;;;;;;5060615;28;25089;-71
2023/06/09 12:24:23;;;;;;;8.38;3.97;;;;;;;;;;5044692;28;25073;-72
2023/06/09 12:26:49;;;;;;;7.28;3.78;;;;;;;;;;5058682;28;25059;-70
2023/06/09 12:29:16;;;;;;;7.28;3.65;;;;;;;;;;5055695;28;25071;-70
2023/06/09 12:31:46;;;;;;;4.85;4.13;;;;;;;;;;5059893;28;25075;-72
2023/06/09 12:34:30;;;;;;;13.10;5.50;;;;;;;;;;5056683;28;25083;-71
2023/06/09 12:36:57;;;;;;;6.32;4.13;;;;;;;;;;5058564;28;25050;-71
2023/06/09 12:39:24;;;;;;;6.20;4.15;;;;;;;;;;5056479;28;25168;-71
2023/06/09 12:41:50;;;;;;;4.65;3.47;;;;;;;;;;5055765;28;25126;-70
2023/06/09 12:44:20;;;;;;;9.50;4.18;;;;;;;;;;5037622;28;25042;-70
2023/06/09 12:46:47;;;;;;;6.85;4.43;;;;;;;;;;5058430;28;25066;-71
2023/06/09 12:49:13;;;;;;;5.50;3.97;;;;;;;;;;5056400;28;25050;-72
2023/06/09 12:51:40;;;;;;;7.82;4.15;;;;;;;;;;5060802;28;25060;-71
2023/06/09 12:54:07;;;;;;;10.85;4.10;;;;;;;;;;5075998;28;25144;-72
2023/06/09 12:56:33;;;;;;;6.85;3.90;;;;;;;;;;5077467;28;25146;-69
2023/06/09 12:58:59;;;;;;;6.72;4.72;;;;;;;;;;5078526;28;25081;-73
2023/06/09 13:01:26;;;;;;;9.95;3.95;;;;;;;;;;5077631;28;25057;-71
2023/06/09 13:03:52;;;;;;;5.75;4.30;;;;;;;;;;5075673;28;25071;-70
2023/06/09 13:06:18;;;;;;;6.55;4.07;;;;;;;;;;5077585;28;25150;-70
2023/06/09 13:08:44;;;;;;;9.10;4.88;;;;;;;;;;5075707;28;25129;-70
2023/06/09 13:11:11;;;;;;;7.63;4.50;;;;;;;;;;5076506;28;25082;-71
2023/06/09 13:13:38;;;;;;;5.55;4.47;;;;;;;;;;5073762;28;25058;-69
2023/06/09 13:16:04;;;;;;;5.03;4.05;;;;;;;;;;5072946;28;25052;-71
2023/06/09 13:18:30;;;;;;;8.85;4.78;;;;;;;;;;5057375;28;25061;-71
2023/06/09 13:20:56;;;;;;;8.27;5.30;;;;;;;;;;5056309;28;25127;-69
2023/06/09 13:23:22;;;;;;;5.88;3.95;;;;;;;;;;5054924;28;25060;-70
2023/06/09 13:25:48;;;;;;;10.13;4.72;;;;;;;;;;5056069;28;25144;-71
2023/06/09 13:28:15;;;;;;;6.25;4.10;;;;;;;;;;5053683;28;25088;-71
2023/06/09 13:30:41;;;;;;;7.65;4.55;;;;;;;;;;5058188;28;25062;-71
2023/06/09 13:33:07;;;;;;;10.23;5.28;;;;;;;;;;5044203;28;25072;-71
2023/06/09 13:35:34;;;;;;;6.88;4.22;;;;;;;;;;5056820;28;25101;-72
2023/06/09 13:38:00;;;;;;;14.18;4.60;;;;;;;;;;5053711;28;25139;-72
2023/06/09 13:40:26;;;;;;;7.15;4.80;;;;;;;;;;5037044;28;25081;-71
2023/06/09 13:42:55;;;;;;;8.65;4.90;;;;;;;;;;5051707;28;25133;-72
2023/06/09 13:45:24;;;;;;;9.13;4.68;;;;;;;;;;5053319;28;25066;-72
2023/06/09 13:47:52;;;;;;;12.48;5.03;;;;;;;;;;5052793;28;25099;-71
2023/06/09 13:50:18;;;;;;;7.43;4.70;;;;;;;;;;5055690;28;25128;-73
2023/06/09 13:52:45;;;;;;;5.82;4.93;;;;;;;;;;5053990;28;25063;-71
2023/06/09 13:55:11;;;;;;;5.85;4.88;;;;;;;;;;5054747;28;25069;-73
2023/06/09 13:57:37;;;;;;;6.05;4.50;;;;;;;;;;5056243;28;25061;-71
2023/06/09 14:00:04;;;;;;;6.13;4.60;;;;;;;;;;5055704;28;25078;-72
2023/06/09 14:02:30;;;;;;;5.20;4.38;;;;;;;;;;5054058;28;25086;-70
2023/06/09 14:04:59;;;;;;;8.68;5.10;;;;;;;;;;5058202;28;25061;-70
2023/06/09 14:07:25;;;;;;;7.25;5.43;;;;;;;;;;5056967;28;25060;-72
2023/06/09 14:09:51;;;;;;;8.30;4.85;;;;;;;;;;5057220;28;25059;-71
2023/06/09 14:12:17;;;;;;;7.47;4.20;;;;;;;;;;5054884;28;25114;-70
2023/06/09 14:14:43;;;;;;;10.35;4.95;;;;;;;;;;5055558;28;25058;-71
2023/06/09 14:17:09;;;;;;;11.10;4.85;;;;;;;;;;5054985;28;25052;-70
2023/06/09 14:19:35;;;;;;;4.75;4.18;;;;;;;;;;5056168;28;25143;-71
2023/06/09 14:22:04;;;;;;;6.05;4.57;;;;;;;;;;5055943;28;25073;-71
2023/06/09 14:24:31;;;;;;;5.47;4.30;;;;;;;;;;5058029;28;25063;-71
2023/06/09 14:26:57;;;;;;;10.23;4.85;;;;;;;;;;5054837;28;25061;-71
2023/06/09 14:29:23;;;;;;;12.10;4.53;;;;;;;;;;5054427;28;25080;-70
2023/06/09 14:31:49;;;;;;;10.30;4.00;;;;;;;;;;5057474;28;25084;-71